sensor_id;sensor_type;location;lat;lon;timestamp;pressure;altitude;pressure_sealevel;temperature;humidity
10720;BME280;5411;58.386;15.560;2023-05-12T00:02:14;101434.31;;;11.42;47.99
10720;BME280;5411;58.386;15.560;2023-05-12T00:04:43;101432.34;;;11.36;48.46
10720;BME280;5411;58.386;15.560;2023-05-12T00:07:12;101431.25;;;11.30;49.26
10720;BME280;5411;58.386;15.560;2023-05-12T00:09:41;101436.31;;;11.25;47.73
10720;BME280;5411;58.386;15.560;2023-05-12T00:12:09;101436.47;;;11.24;48.65
10720;BME280;5411;58.386;15.560;2023-05-12T00:14:39;101438.69;;;11.20;48.46
10720;BME280;5411;58.386;15.560;2023-05-12T00:17:07;101437.41;;;11.16;48.79
10720;BME280;5411;58.386;15.560;2023-05-12T00:19:36;101444.94;;;11.13;48.45
10720;BME280;5411;58.386;15.560;2023-05-12T00:22:05;101440.13;;;11.08;48.59
10720;BME280;5411;58.386;15.560;2023-05-12T00:24:33;101442.13;;;11.06;48.86
10720;BME280;5411;58.386;15.560;2023-05-12T00:27:02;101438.34;;;11.00;49.08
10720;BME280;5411;58.386;15.560;2023-05-12T00:29:31;101441.91;;;10.93;49.54
10720;BME280;5411;58.386;15.560;2023-05-12T00:32:04;101442.63;;;10.87;49.47
10720;BME280;5411;58.386;15.560;2023-05-12T00:34:32;101452.38;;;10.80;49.95
10720;BME280;5411;58.386;15.560;2023-05-12T00:37:00;101456.25;;;10.77;49.86
10720;BME280;5411;58.386;15.560;2023-05-12T00:39:29;101447.38;;;10.77;49.59
10720;BME280;5411;58.386;15.560;2023-05-12T00:41:58;101454.75;;;10.75;49.83
10720;BME280;5411;58.386;15.560;2023-05-12T00:44:26;101450.09;;;10.68;49.73
10720;BME280;5411;58.386;15.560;2023-05-12T00:46:54;101459.78;;;10.69;49.69
10720;BME280;5411;58.386;15.560;2023-05-12T00:49:25;101456.63;;;10.66;50.01
10720;BME280;5411;58.386;15.560;2023-05-12T00:51:54;101454.69;;;10.60;50.75
10720;BME280;5411;58.386;15.560;2023-05-12T00:54:22;101452.16;;;10.58;50.28
10720;BME280;5411;58.386;15.560;2023-05-12T00:56:52;101459.88;;;10.53;50.62
10720;BME280;5411;58.386;15.560;2023-05-12T00:59:20;101469.13;;;10.51;50.86
10720;BME280;5411;58.386;15.560;2023-05-12T01:01:49;101462.44;;;10.47;51.26
10720;BME280;5411;58.386;15.560;2023-05-12T01:04:17;101468.31;;;10.42;51.59
10720;BME280;5411;58.386;15.560;2023-05-12T01:06:53;101458.16;;;10.38;52.30
10720;BME280;5411;58.386;15.560;2023-05-12T01:09:23;101461.50;;;10.31;52.52
10720;BME280;5411;58.386;15.560;2023-05-12T01:11:51;101460.00;;;10.29;52.48
10720;BME280;5411;58.386;15.560;2023-05-12T01:14:29;101466.41;;;10.20;53.01
10720;BME280;5411;58.386;15.560;2023-05-12T01:16:59;101470.06;;;10.19;53.03
10720;BME280;5411;58.386;15.560;2023-05-12T01:19:37;101464.06;;;10.09;53.01
10720;BME280;5411;58.386;15.560;2023-05-12T01:22:08;101467.59;;;10.09;53.22
10720;BME280;5411;58.386;15.560;2023-05-12T01:24:44;101467.41;;;10.02;53.63
10720;BME280;5411;58.386;15.560;2023-05-12T01:27:15;101467.97;;;9.98;53.34
10720;BME280;5411;58.386;15.560;2023-05-12T01:29:45;101465.94;;;9.92;54.46
10720;BME280;5411;58.386;15.560;2023-05-12T01:32:31;101480.31;;;9.91;55.73
10720;BME280;5411;58.386;15.560;2023-05-12T01:35:00;101473.81;;;9.85;56.17
10720;BME280;5411;58.386;15.560;2023-05-12T01:37:28;101472.00;;;9.78;55.74
10720;BME280;5411;58.386;15.560;2023-05-12T01:39:56;101473.88;;;9.69;56.43
10720;BME280;5411;58.386;15.560;2023-05-12T01:42:26;101488.88;;;9.62;55.57
10720;BME280;5411;58.386;15.560;2023-05-12T01:44:54;101489.56;;;9.56;55.21
10720;BME280;5411;58.386;15.560;2023-05-12T01:47:22;101480.22;;;9.52;56.87
10720;BME280;5411;58.386;15.560;2023-05-12T01:49:50;101494.44;;;9.44;56.94
10720;BME280;5411;58.386;15.560;2023-05-12T01:52:20;101487.91;;;9.39;56.42
10720;BME280;5411;58.386;15.560;2023-05-12T01:54:48;101496.41;;;9.34;57.74
10720;BME280;5411;58.386;15.560;2023-05-12T01:57:17;101490.91;;;9.36;57.32
10720;BME280;5411;58.386;15.560;2023-05-12T01:59:47;101490.91;;;9.36;56.83
10720;BME280;5411;58.386;15.560;2023-05-12T02:02:15;101488.38;;;9.34;56.17
10720;BME280;5411;58.386;15.560;2023-05-12T02:04:43;101493.25;;;9.39;57.78
10720;BME280;5411;58.386;15.560;2023-05-12T02:07:13;101498.06;;;9.35;59.08
10720;BME280;5411;58.386;15.560;2023-05-12T02:09:42;101491.91;;;9.26;58.59
10720;BME280;5411;58.386;15.560;2023-05-12T02:12:10;101494.59;;;9.18;58.79
10720;BME280;5411;58.386;15.560;2023-05-12T02:14:39;101493.22;;;9.06;59.04
10720;BME280;5411;58.386;15.560;2023-05-12T02:17:12;101496.22;;;9.03;59.12
10720;BME280;5411;58.386;15.560;2023-05-12T02:19:40;101494.03;;;8.99;58.84
10720;BME280;5411;58.386;15.560;2023-05-12T02:22:08;101494.53;;;8.94;59.78
10720;BME280;5411;58.386;15.560;2023-05-12T02:24:37;101495.19;;;8.88;60.17
10720;BME280;5411;58.386;15.560;2023-05-12T02:27:05;101496.34;;;8.85;59.13
10720;BME280;5411;58.386;15.560;2023-05-12T02:29:33;101494.16;;;8.81;60.18
10720;BME280;5411;58.386;15.560;2023-05-12T02:32:02;101498.81;;;8.79;59.68
10720;BME280;5411;58.386;15.560;2023-05-12T02:34:32;101506.66;;;8.80;58.85
10720;BME280;5411;58.386;15.560;2023-05-12T02:37:00;101504.84;;;8.81;60.12
10720;BME280;5411;58.386;15.560;2023-05-12T02:39:28;101498.81;;;8.79;60.13
10720;BME280;5411;58.386;15.560;2023-05-12T02:41:56;101496.81;;;8.73;59.06
10720;BME280;5411;58.386;15.560;2023-05-12T02:44:25;101500.84;;;8.77;59.67
10720;BME280;5411;58.386;15.560;2023-05-12T02:46:53;101502.53;;;8.78;59.94
10720;BME280;5411;58.386;15.560;2023-05-12T02:49:23;101495.81;;;8.74;59.79
10720;BME280;5411;58.386;15.560;2023-05-12T02:51:53;101507.84;;;8.78;58.63
10720;BME280;5411;58.386;15.560;2023-05-12T02:54:22;101505.00;;;8.79;58.82
10720;BME280;5411;58.386;15.560;2023-05-12T02:56:50;101514.19;;;8.85;58.83
10720;BME280;5411;58.386;15.560;2023-05-12T02:59:18;101510.06;;;8.90;58.53
10720;BME280;5411;58.386;15.560;2023-05-12T03:01:47;101507.88;;;8.94;58.50
10720;BME280;5411;58.386;15.560;2023-05-12T03:04:15;101505.91;;;9.04;58.37
10720;BME280;5411;58.386;15.560;2023-05-12T03:06:44;101509.22;;;9.06;58.50
10720;BME280;5411;58.386;15.560;2023-05-12T03:09:15;101510.25;;;9.13;58.35
10720;BME280;5411;58.386;15.560;2023-05-12T03:11:43;101508.41;;;9.22;58.42
10720;BME280;5411;58.386;15.560;2023-05-12T03:14:11;101515.25;;;9.33;57.94
10720;BME280;5411;58.386;15.560;2023-05-12T03:16:45;101513.59;;;9.48;58.00
10720;BME280;5411;58.386;15.560;2023-05-12T03:19:14;101502.91;;;9.64;56.90
10720;BME280;5411;58.386;15.560;2023-05-12T03:21:42;101511.59;;;9.82;57.31
10720;BME280;5411;58.386;15.560;2023-05-12T03:24:11;101514.41;;;9.97;57.34
10720;BME280;5411;58.386;15.560;2023-05-12T03:26:40;101515.34;;;10.12;58.34
10720;BME280;5411;58.386;15.560;2023-05-12T03:29:09;101518.19;;;10.27;57.79
10720;BME280;5411;58.386;15.560;2023-05-12T03:31:37;101514.31;;;10.38;58.03
10720;BME280;5411;58.386;15.560;2023-05-12T03:34:05;101524.31;;;10.44;58.31
10720;BME280;5411;58.386;15.560;2023-05-12T03:36:34;101515.59;;;10.50;57.39
10720;BME280;5411;58.386;15.560;2023-05-12T03:39:03;101524.09;;;10.61;56.87
10720;BME280;5411;58.386;15.560;2023-05-12T03:41:34;101525.94;;;10.61;55.72
10720;BME280;5411;58.386;15.560;2023-05-12T03:44:05;101521.91;;;10.65;56.22
10720;BME280;5411;58.386;15.560;2023-05-12T03:46:34;101516.66;;;10.71;55.84
10720;BME280;5411;58.386;15.560;2023-05-12T03:49:03;101517.34;;;10.74;55.78
10720;BME280;5411;58.386;15.560;2023-05-12T03:51:31;101524.31;;;10.83;54.60
10720;BME280;5411;58.386;15.560;2023-05-12T03:53:59;101526.28;;;10.89;54.71
10720;BME280;5411;58.386;15.560;2023-05-12T03:56:28;101523.91;;;10.94;53.58
10720;BME280;5411;58.386;15.560;2023-05-12T03:58:56;101519.19;;;10.96;53.43
10720;BME280;5411;58.386;15.560;2023-05-12T04:01:26;101527.56;;;11.01;53.69
10720;BME280;5411;58.386;15.560;2023-05-12T04:03:54;101528.03;;;11.04;54.24
10720;BME280;5411;58.386;15.560;2023-05-12T04:06:24;101518.94;;;11.14;55.11
10720;BME280;5411;58.386;15.560;2023-05-12T04:08:52;101519.59;;;11.16;53.53
10720;BME280;5411;58.386;15.560;2023-05-12T04:11:20;101534.28;;;11.20;53.00
10720;BME280;5411;58.386;15.560;2023-05-12T04:13:49;101527.72;;;11.22;53.42
10720;BME280;5411;58.386;15.560;2023-05-12T04:16:17;101531.56;;;11.28;54.33
10720;BME280;5411;58.386;15.560;2023-05-12T04:18:48;101528.31;;;11.32;52.91
10720;BME280;5411;58.386;15.560;2023-05-12T04:21:17;101529.13;;;11.41;52.73
10720;BME280;5411;58.386;15.560;2023-05-12T04:23:45;101524.50;;;11.50;52.18
10720;BME280;5411;58.386;15.560;2023-05-12T04:26:19;101527.78;;;11.60;51.10
10720;BME280;5411;58.386;15.560;2023-05-12T04:28:48;101535.59;;;11.69;50.70
10720;BME280;5411;58.386;15.560;2023-05-12T04:31:16;101522.13;;;11.77;50.40
10720;BME280;5411;58.386;15.560;2023-05-12T04:33:44;101523.53;;;11.88;50.02
10720;BME280;5411;58.386;15.560;2023-05-12T04:36:15;101529.00;;;11.95;49.76
10720;BME280;5411;58.386;15.560;2023-05-12T04:38:43;101535.13;;;12.03;49.51
10720;BME280;5411;58.386;15.560;2023-05-12T04:41:18;101537.53;;;12.13;49.63
10720;BME280;5411;58.386;15.560;2023-05-12T04:43:48;101536.44;;;12.22;48.85
10720;BME280;5411;58.386;15.560;2023-05-12T04:46:19;101534.66;;;12.29;48.67
10720;BME280;5411;58.386;15.560;2023-05-12T04:48:48;101543.47;;;12.38;48.90
10720;BME280;5411;58.386;15.560;2023-05-12T04:51:18;101543.19;;;12.47;48.88
10720;BME280;5411;58.386;15.560;2023-05-12T04:53:46;101534.00;;;12.57;47.99
10720;BME280;5411;58.386;15.560;2023-05-12T04:56:18;101543.44;;;12.67;48.06
10720;BME280;5411;58.386;15.560;2023-05-12T04:58:49;101550.00;;;12.79;47.40
10720;BME280;5411;58.386;15.560;2023-05-12T05:01:17;101552.59;;;12.88;47.80
10720;BME280;5411;58.386;15.560;2023-05-12T05:03:46;101551.25;;;12.98;47.34
10720;BME280;5411;58.386;15.560;2023-05-12T05:06:17;101550.69;;;13.03;47.18
10720;BME280;5411;58.386;15.560;2023-05-12T05:08:45;101549.84;;;13.17;47.15
10720;BME280;5411;58.386;15.560;2023-05-12T05:11:20;101553.44;;;13.24;46.70
10720;BME280;5411;58.386;15.560;2023-05-12T05:13:49;101547.34;;;13.37;46.00
10720;BME280;5411;58.386;15.560;2023-05-12T05:16:17;101549.72;;;13.46;46.61
10720;BME280;5411;58.386;15.560;2023-05-12T05:18:46;101549.59;;;13.54;46.21
10720;BME280;5411;58.386;15.560;2023-05-12T05:21:14;101546.78;;;13.63;46.86
10720;BME280;5411;58.386;15.560;2023-05-12T05:23:44;101548.56;;;13.77;46.35
10720;BME280;5411;58.386;15.560;2023-05-12T05:26:12;101547.19;;;13.87;45.86
10720;BME280;5411;58.386;15.560;2023-05-12T05:28:40;101542.09;;;13.99;45.77
10720;BME280;5411;58.386;15.560;2023-05-12T05:31:13;101544.28;;;14.10;45.53
10720;BME280;5411;58.386;15.560;2023-05-12T05:33:42;101544.09;;;14.18;45.47
10720;BME280;5411;58.386;15.560;2023-05-12T05:36:11;101553.69;;;14.27;44.96
10720;BME280;5411;58.386;15.560;2023-05-12T05:38:40;101551.88;;;14.35;44.71
10720;BME280;5411;58.386;15.560;2023-05-12T05:41:10;101556.72;;;14.46;45.17
10720;BME280;5411;58.386;15.560;2023-05-12T05:43:38;101550.59;;;14.58;45.22
10720;BME280;5411;58.386;15.560;2023-05-12T05:46:06;101558.09;;;14.70;45.20
10720;BME280;5411;58.386;15.560;2023-05-12T05:48:35;101558.75;;;14.78;43.92
10720;BME280;5411;58.386;15.560;2023-05-12T05:51:09;101559.84;;;14.90;44.14
10720;BME280;5411;58.386;15.560;2023-05-12T05:53:38;101565.28;;;15.04;44.19
10720;BME280;5411;58.386;15.560;2023-05-12T05:56:07;101564.91;;;15.20;43.90
10720;BME280;5411;58.386;15.560;2023-05-12T05:58:36;101571.34;;;15.32;43.85
10720;BME280;5411;58.386;15.560;2023-05-12T06:01:05;101567.84;;;15.45;43.89
10720;BME280;5411;58.386;15.560;2023-05-12T06:03:37;101566.03;;;15.58;42.94
10720;BME280;5411;58.386;15.560;2023-05-12T06:06:10;101562.31;;;15.73;43.41
10720;BME280;5411;58.386;15.560;2023-05-12T06:08:38;101563.34;;;15.85;42.66
10720;BME280;5411;58.386;15.560;2023-05-12T06:11:07;101569.81;;;15.97;42.70
10720;BME280;5411;58.386;15.560;2023-05-12T06:13:37;101556.06;;;16.12;42.61
10720;BME280;5411;58.386;15.560;2023-05-12T06:16:05;101558.53;;;16.26;42.83
10720;BME280;5411;58.386;15.560;2023-05-12T06:18:33;101559.97;;;16.42;42.31
10720;BME280;5411;58.386;15.560;2023-05-12T06:21:04;101560.34;;;16.59;41.69
10720;BME280;5411;58.386;15.560;2023-05-12T06:23:33;101558.25;;;16.74;41.59
10720;BME280;5411;58.386;15.560;2023-05-12T06:26:01;101559.25;;;16.86;41.78
10720;BME280;5411;58.386;15.560;2023-05-12T06:28:29;101561.66;;;17.01;41.27
10720;BME280;5411;58.386;15.560;2023-05-12T06:30:59;101565.13;;;17.15;40.79
10720;BME280;5411;58.386;15.560;2023-05-12T06:33:28;101567.97;;;17.26;40.08
10720;BME280;5411;58.386;15.560;2023-05-12T06:35:56;101568.09;;;17.38;40.07
10720;BME280;5411;58.386;15.560;2023-05-12T06:38:25;101563.66;;;17.50;40.09
10720;BME280;5411;58.386;15.560;2023-05-12T06:40:53;101562.72;;;17.63;39.93
10720;BME280;5411;58.386;15.560;2023-05-12T06:43:22;101558.28;;;17.75;39.20
10720;BME280;5411;58.386;15.560;2023-05-12T06:45:50;101566.09;;;17.90;39.43
10720;BME280;5411;58.386;15.560;2023-05-12T06:48:20;101560.56;;;18.03;39.66
10720;BME280;5411;58.386;15.560;2023-05-12T06:50:48;101566.06;;;18.14;39.17
10720;BME280;5411;58.386;15.560;2023-05-12T06:53:17;101562.78;;;18.31;38.74
10720;BME280;5411;58.386;15.560;2023-05-12T06:55:45;101557.66;;;18.41;38.24
10720;BME280;5411;58.386;15.560;2023-05-12T06:58:14;101567.19;;;18.50;37.63
10720;BME280;5411;58.386;15.560;2023-05-12T07:00:42;101567.91;;;18.64;37.31
10720;BME280;5411;58.386;15.560;2023-05-12T07:03:14;101565.91;;;18.71;37.57
10720;BME280;5411;58.386;15.560;2023-05-12T07:05:45;101571.84;;;18.79;37.21
10720;BME280;5411;58.386;15.560;2023-05-12T07:08:13;101569.69;;;18.88;37.12
10720;BME280;5411;58.386;15.560;2023-05-12T07:10:41;101569.97;;;18.98;36.94
10720;BME280;5411;58.386;15.560;2023-05-12T07:13:10;101574.38;;;19.11;36.93
10720;BME280;5411;58.386;15.560;2023-05-12T07:15:38;101575.72;;;19.20;35.99
10720;BME280;5411;58.386;15.560;2023-05-12T07:18:07;101581.28;;;19.25;34.57
10720;BME280;5411;58.386;15.560;2023-05-12T07:20:35;101574.13;;;19.31;34.83
10720;BME280;5411;58.386;15.560;2023-05-12T07:23:06;101575.31;;;19.35;34.71
10720;BME280;5411;58.386;15.560;2023-05-12T07:25:34;101572.72;;;19.40;35.45
10720;BME280;5411;58.386;15.560;2023-05-12T07:28:04;101579.38;;;19.44;35.22
10720;BME280;5411;58.386;15.560;2023-05-12T07:30:32;101575.75;;;19.50;34.81
10720;BME280;5411;58.386;15.560;2023-05-12T07:33:00;101578.59;;;19.55;35.32
10720;BME280;5411;58.386;15.560;2023-05-12T07:35:28;101579.31;;;19.62;34.11
10720;BME280;5411;58.386;15.560;2023-05-12T07:37:57;101571.31;;;19.67;34.71
10720;BME280;5411;58.386;15.560;2023-05-12T07:40:27;101580.53;;;19.78;35.03
10720;BME280;5411;58.386;15.560;2023-05-12T07:42:56;101568.47;;;19.85;33.41
10720;BME280;5411;58.386;15.560;2023-05-12T07:45:25;101573.00;;;19.91;34.01
10720;BME280;5411;58.386;15.560;2023-05-12T07:48:00;101582.91;;;19.98;33.13
10720;BME280;5411;58.386;15.560;2023-05-12T07:50:28;101571.94;;;20.04;32.74
10720;BME280;5411;58.386;15.560;2023-05-12T07:52:56;101573.13;;;20.08;32.43
10720;BME280;5411;58.386;15.560;2023-05-12T07:55:29;101574.41;;;20.17;32.36
10720;BME280;5411;58.386;15.560;2023-05-12T07:58:04;101581.88;;;20.22;32.66
10720;BME280;5411;58.386;15.560;2023-05-12T08:00:33;101570.75;;;20.23;31.54
10720;BME280;5411;58.386;15.560;2023-05-12T08:03:01;101572.16;;;20.26;31.81
10720;BME280;5411;58.386;15.560;2023-05-12T08:05:30;101572.06;;;20.33;31.36
10720;BME280;5411;58.386;15.560;2023-05-12T08:08:00;101577.06;;;20.36;30.33
10720;BME280;5411;58.386;15.560;2023-05-12T08:10:30;101579.75;;;20.47;31.70
10720;BME280;5411;58.386;15.560;2023-05-12T08:12:58;101573.72;;;20.57;31.60
10720;BME280;5411;58.386;15.560;2023-05-12T08:15:27;101576.16;;;20.70;32.06
10720;BME280;5411;58.386;15.560;2023-05-12T08:17:55;101577.44;;;20.79;32.06
10720;BME280;5411;58.386;15.560;2023-05-12T08:20:23;101582.16;;;20.84;31.99
10720;BME280;5411;58.386;15.560;2023-05-12T08:22:52;101582.75;;;20.86;31.60
10720;BME280;5411;58.386;15.560;2023-05-12T08:25:20;101576.00;;;20.88;31.32
10720;BME280;5411;58.386;15.560;2023-05-12T08:27:50;101577.75;;;20.94;31.21
10720;BME280;5411;58.386;15.560;2023-05-12T08:30:19;101580.00;;;20.97;30.95
10720;BME280;5411;58.386;15.560;2023-05-12T08:32:47;101573.09;;;21.07;31.39
10720;BME280;5411;58.386;15.560;2023-05-12T08:35:15;101578.66;;;21.12;30.79
10720;BME280;5411;58.386;15.560;2023-05-12T08:37:45;101573.66;;;21.20;30.83
10720;BME280;5411;58.386;15.560;2023-05-12T08:40:19;101574.94;;;21.29;30.44
10720;BME280;5411;58.386;15.560;2023-05-12T08:42:53;101577.38;;;21.43;29.91
10720;BME280;5411;58.386;15.560;2023-05-12T08:45:28;101573.06;;;21.47;30.96
10720;BME280;5411;58.386;15.560;2023-05-12T08:47:57;101574.22;;;21.51;30.88
10720;BME280;5411;58.386;15.560;2023-05-12T08:50:27;101568.59;;;21.57;29.71
10720;BME280;5411;58.386;15.560;2023-05-12T08:52:58;101575.22;;;21.61;29.93
10720;BME280;5411;58.386;15.560;2023-05-12T08:55:26;101566.56;;;21.64;29.16
10720;BME280;5411;58.386;15.560;2023-05-12T08:58:01;101566.16;;;21.73;28.53
10720;BME280;5411;58.386;15.560;2023-05-12T09:00:31;101574.91;;;21.75;28.62
10720;BME280;5411;58.386;15.560;2023-05-12T09:03:04;101571.69;;;21.78;28.03
10720;BME280;5411;58.386;15.560;2023-05-12T09:05:42;101566.00;;;21.79;28.94
10720;BME280;5411;58.386;15.560;2023-05-12T09:08:12;101569.38;;;21.86;27.61
10720;BME280;5411;58.386;15.560;2023-05-12T09:10:41;101564.50;;;21.88;28.16
10720;BME280;5411;58.386;15.560;2023-05-12T09:13:15;101559.81;;;22.00;27.43
10720;BME280;5411;58.386;15.560;2023-05-12T09:16:10;101559.97;;;22.11;28.31
10720;BME280;5411;58.386;15.560;2023-05-12T09:18:45;101558.91;;;22.12;28.55
10720;BME280;5411;58.386;15.560;2023-05-12T09:21:15;101558.16;;;22.16;27.00
10720;BME280;5411;58.386;15.560;2023-05-12T09:23:54;101557.66;;;22.19;28.02
10720;BME280;5411;58.386;15.560;2023-05-12T09:26:23;101549.22;;;22.21;27.02
10720;BME280;5411;58.386;15.560;2023-05-12T09:28:55;101545.44;;;22.22;27.50
10720;BME280;5411;58.386;15.560;2023-05-12T09:31:30;101545.44;;;22.22;27.49
10720;BME280;5411;58.386;15.560;2023-05-12T09:33:59;101549.94;;;22.33;27.52
10720;BME280;5411;58.386;15.560;2023-05-12T09:36:53;101547.94;;;22.45;26.89
10720;BME280;5411;58.386;15.560;2023-05-12T09:39:21;101543.56;;;22.44;26.68
10720;BME280;5411;58.386;15.560;2023-05-12T09:41:50;101544.13;;;22.46;27.16
10720;BME280;5411;58.386;15.560;2023-05-12T09:44:30;101542.03;;;22.53;26.80
10720;BME280;5411;58.386;15.560;2023-05-12T09:47:08;101541.34;;;22.63;26.17
10720;BME280;5411;58.386;15.560;2023-05-12T09:49:37;101553.13;;;22.68;26.23
10720;BME280;5411;58.386;15.560;2023-05-12T09:52:05;101543.94;;;22.74;26.38
10720;BME280;5411;58.386;15.560;2023-05-12T09:54:33;101548.91;;;22.78;26.30
10720;BME280;5411;58.386;15.560;2023-05-12T09:57:03;101547.31;;;22.82;26.17
10720;BME280;5411;58.386;15.560;2023-05-12T09:59:34;101544.34;;;22.83;26.12
10720;BME280;5411;58.386;15.560;2023-05-12T10:02:07;101544.09;;;22.85;25.79
10720;BME280;5411;58.386;15.560;2023-05-12T10:04:41;101541.94;;;22.87;25.05
10720;BME280;5411;58.386;15.560;2023-05-12T10:07:13;101543.53;;;22.83;25.14
10720;BME280;5411;58.386;15.560;2023-05-12T10:09:44;101552.28;;;22.85;24.77
10720;BME280;5411;58.386;15.560;2023-05-12T10:12:15;101548.66;;;22.79;24.63
10720;BME280;5411;58.386;15.560;2023-05-12T10:14:46;101546.00;;;22.84;25.37
10720;BME280;5411;58.386;15.560;2023-05-12T10:17:15;101542.75;;;22.87;24.90
10720;BME280;5411;58.386;15.560;2023-05-12T10:19:46;101536.47;;;22.87;24.36
10720;BME280;5411;58.386;15.560;2023-05-12T10:22:16;101542.31;;;22.95;24.83
10720;BME280;5411;58.386;15.560;2023-05-12T10:24:47;101536.34;;;22.98;22.73
10720;BME280;5411;58.386;15.560;2023-05-12T10:27:17;101542.38;;;23.00;21.04
10720;BME280;5411;58.386;15.560;2023-05-12T10:29:48;101537.91;;;22.94;22.40
10720;BME280;5411;58.386;15.560;2023-05-12T10:32:39;101536.53;;;22.92;23.20
10720;BME280;5411;58.386;15.560;2023-05-12T10:35:08;101528.06;;;22.93;24.70
10720;BME280;5411;58.386;15.560;2023-05-12T10:37:38;101532.56;;;23.04;23.86
10720;BME280;5411;58.386;15.560;2023-05-12T10:40:07;101536.41;;;23.03;24.53
10720;BME280;5411;58.386;15.560;2023-05-12T10:42:40;101535.84;;;23.01;24.10
10720;BME280;5411;58.386;15.560;2023-05-12T10:45:19;101529.06;;;23.09;24.55
10720;BME280;5411;58.386;15.560;2023-05-12T10:47:48;101524.75;;;23.13;25.05
10720;BME280;5411;58.386;15.560;2023-05-12T10:50:25;101531.91;;;23.19;25.45
10720;BME280;5411;58.386;15.560;2023-05-12T10:52:54;101525.44;;;23.30;25.23
10720;BME280;5411;58.386;15.560;2023-05-12T10:55:33;101528.56;;;23.39;24.97
10720;BME280;5411;58.386;15.560;2023-05-12T10:58:08;101532.69;;;23.41;24.92
10720;BME280;5411;58.386;15.560;2023-05-12T11:00:48;101527.72;;;23.38;25.83
10720;BME280;5411;58.386;15.560;2023-05-12T11:03:23;101519.28;;;23.40;25.95
10720;BME280;5411;58.386;15.560;2023-05-12T11:06:18;101514.63;;;23.40;25.03
10720;BME280;5411;58.386;15.560;2023-05-12T11:08:47;101524.75;;;23.45;26.29
10720;BME280;5411;58.386;15.560;2023-05-12T11:11:17;101516.88;;;23.49;25.97
10720;BME280;5411;58.386;15.560;2023-05-12T11:13:45;101514.16;;;23.49;25.97
10720;BME280;5411;58.386;15.560;2023-05-12T11:16:15;101522.72;;;23.57;26.11
10720;BME280;5411;58.386;15.560;2023-05-12T11:18:43;101520.88;;;23.63;24.74
10720;BME280;5411;58.386;15.560;2023-05-12T11:21:12;101517.03;;;23.64;25.54
10720;BME280;5411;58.386;15.560;2023-05-12T11:23:41;101513.53;;;23.68;25.62
10720;BME280;5411;58.386;15.560;2023-05-12T11:26:16;101509.75;;;23.74;24.99
10720;BME280;5411;58.386;15.560;2023-05-12T11:28:44;101507.63;;;23.82;24.89
10720;BME280;5411;58.386;15.560;2023-05-12T11:31:18;101504.34;;;23.85;24.98
10720;BME280;5411;58.386;15.560;2023-05-12T11:33:47;101502.78;;;23.94;25.86
10720;BME280;5411;58.386;15.560;2023-05-12T11:36:35;101504.69;;;23.93;24.55
10720;BME280;5411;58.386;15.560;2023-05-12T11:39:04;101501.91;;;23.83;24.46
10720;BME280;5411;58.386;15.560;2023-05-12T11:41:33;101500.25;;;23.82;24.98
10720;BME280;5411;58.386;15.560;2023-05-12T11:44:12;101497.81;;;23.91;25.44
10720;BME280;5411;58.386;15.560;2023-05-12T11:46:52;101495.66;;;23.93;25.24
10720;BME280;5411;58.386;15.560;2023-05-12T11:49:21;101494.84;;;23.92;26.28
10720;BME280;5411;58.386;15.560;2023-05-12T11:51:50;101497.31;;;23.99;25.84
10720;BME280;5411;58.386;15.560;2023-05-12T11:54:20;101500.09;;;24.04;25.38
10720;BME280;5411;58.386;15.560;2023-05-12T11:56:49;101500.16;;;24.14;25.10
10720;BME280;5411;58.386;15.560;2023-05-12T11:59:28;101497.78;;;24.23;25.57
10720;BME280;5411;58.386;15.560;2023-05-12T12:02:00;101505.22;;;24.32;25.19
10720;BME280;5411;58.386;15.560;2023-05-12T12:04:35;101500.03;;;24.36;24.09
10720;BME280;5411;58.386;15.560;2023-05-12T12:07:07;101495.41;;;24.36;24.46
10720;BME280;5411;58.386;15.560;2023-05-12T12:09:37;101492.31;;;24.28;24.85
10720;BME280;5411;58.386;15.560;2023-05-12T12:12:09;101498.31;;;24.25;24.88
10720;BME280;5411;58.386;15.560;2023-05-12T12:14:38;101488.19;;;24.25;24.93
10720;BME280;5411;58.386;15.560;2023-05-12T12:17:08;101491.72;;;24.21;25.00
10720;BME280;5411;58.386;15.560;2023-05-12T12:19:36;101491.19;;;24.24;24.66
10720;BME280;5411;58.386;15.560;2023-05-12T12:22:05;101487.66;;;24.23;24.94
10720;BME280;5411;58.386;15.560;2023-05-12T12:24:33;101483.03;;;24.29;24.54
10720;BME280;5411;58.386;15.560;2023-05-12T12:27:01;101485.81;;;24.39;25.33
10720;BME280;5411;58.386;15.560;2023-05-12T12:29:40;101486.41;;;24.46;24.85
10720;BME280;5411;58.386;15.560;2023-05-12T12:32:10;101484.22;;;24.53;24.37
10720;BME280;5411;58.386;15.560;2023-05-12T12:34:38;101473.56;;;24.57;24.69
10720;BME280;5411;58.386;15.560;2023-05-12T12:37:07;101477.69;;;24.64;25.06
10720;BME280;5411;58.386;15.560;2023-05-12T12:39:35;101479.88;;;24.67;24.62
10720;BME280;5411;58.386;15.560;2023-05-12T12:42:04;101472.00;;;24.76;24.39
10720;BME280;5411;58.386;15.560;2023-05-12T12:44:32;101467.88;;;24.73;24.03
10720;BME280;5411;58.386;15.560;2023-05-12T12:47:00;101460.72;;;24.67;24.14
10720;BME280;5411;58.386;15.560;2023-05-12T12:49:30;101474.91;;;24.54;23.43
10720;BME280;5411;58.386;15.560;2023-05-12T12:51:59;101466.19;;;24.57;24.43
10720;BME280;5411;58.386;15.560;2023-05-12T12:54:27;101470.03;;;24.61;24.20
10720;BME280;5411;58.386;15.560;2023-05-12T12:56:55;101453.59;;;24.56;24.18
10720;BME280;5411;58.386;15.560;2023-05-12T12:59:27;101454.66;;;24.45;24.31
10720;BME280;5411;58.386;15.560;2023-05-12T13:01:56;101454.94;;;24.48;25.03
10720;BME280;5411;58.386;15.560;2023-05-12T13:04:25;101454.69;;;24.60;24.58
10720;BME280;5411;58.386;15.560;2023-05-12T13:06:57;101460.19;;;24.60;24.67
10720;BME280;5411;58.386;15.560;2023-05-12T13:09:26;101455.53;;;24.66;25.18